createdAt,value
2019-03-31T00:03:01.559Z,9.63
2019-03-31T00:08:07.354Z,9.61
2019-03-31T00:13:13.626Z,9.37
2019-03-31T00:18:19.550Z,9.31
2019-03-31T00:23:25.347Z,9.26
2019-03-31T00:28:31.133Z,9.14
2019-03-31T00:33:37.097Z,9.03
2019-03-31T00:38:43.357Z,8.93
2019-03-31T00:43:50.153Z,8.87
2019-03-31T00:48:55.978Z,8.71
2019-03-31T00:54:01.695Z,8.64
2019-03-31T00:59:08.041Z,8.62
2019-03-31T01:04:16.757Z,8.58
2019-03-31T01:09:26.563Z,8.60
2019-03-31T01:14:32.655Z,8.52
2019-03-31T01:19:38.692Z,8.45
2019-03-31T01:24:44.590Z,8.29
2019-03-31T01:29:50.486Z,8.18
2019-03-31T01:34:56.559Z,8.07
2019-03-31T01:40:02.478Z,8.07
2019-03-31T01:45:09.972Z,8.02
2019-03-31T01:50:17.921Z,7.86
2019-03-31T01:55:24.168Z,7.83
2019-03-31T02:00:50.491Z,7.87
2019-03-31T02:05:56.390Z,7.88
2019-03-31T02:11:03.016Z,7.85
2019-03-31T02:16:09.227Z,7.83
2019-03-31T02:21:15.222Z,7.74
2019-03-31T02:26:21.471Z,7.59
2019-03-31T02:31:28.189Z,7.59
2019-03-31T02:36:35.658Z,7.49
2019-03-31T02:41:41.568Z,7.43
2019-03-31T02:46:47.442Z,7.30
2019-03-31T02:51:53.086Z,7.18
2019-03-31T02:56:59.090Z,7.04
2019-03-31T03:02:05.381Z,6.99
2019-03-31T03:07:12.999Z,6.97
2019-03-31T03:12:21.758Z,6.88
2019-03-31T03:17:27.964Z,6.89
2019-03-31T03:22:34.066Z,6.84
2019-03-31T03:27:40.322Z,6.83
2019-03-31T03:33:12.662Z,6.76
2019-03-31T03:37:55.575Z,6.62
2019-03-31T03:43:01.904Z,6.15
2019-03-31T03:48:07.699Z,6.05
2019-03-31T03:53:13.477Z,6.09
2019-03-31T03:58:20.069Z,6.17
2019-03-31T04:03:30.436Z,6.19
2019-03-31T04:08:35.936Z,6.19
2019-03-31T04:13:42.014Z,6.24
2019-03-31T04:18:48.283Z,6.24
2019-03-31T04:23:54.391Z,6.22
2019-03-31T04:29:00.487Z,6.27
2019-03-31T04:34:06.917Z,6.16
2019-03-31T04:39:12.597Z,6.13
2019-03-31T04:44:18.388Z,6.08
2019-03-31T04:49:24.195Z,6.03
2019-03-31T04:54:29.984Z,5.92
2019-03-31T04:59:35.814Z,5.83
2019-03-31T05:04:41.888Z,5.85
2019-03-31T05:09:47.583Z,5.80
2019-03-31T05:14:53.769Z,5.76
2019-03-31T05:20:00.861Z,5.73
2019-03-31T05:25:07.020Z,5.73
2019-03-31T05:30:13.225Z,5.64
2019-03-31T05:35:19.733Z,5.58
2019-03-31T05:40:25.420Z,5.60
2019-03-31T05:45:31.120Z,5.55
2019-03-31T05:50:36.814Z,5.53
2019-03-31T05:55:42.949Z,5.54
2019-03-31T06:00:52.211Z,5.53
2019-03-31T06:05:58.170Z,5.58
2019-03-31T06:11:03.966Z,5.66
2019-03-31T06:16:09.754Z,5.77
2019-03-31T06:21:15.484Z,5.87
2019-03-31T06:26:21.582Z,5.97
2019-03-31T06:31:27.638Z,6.08
2019-03-31T06:36:35.429Z,6.19
2019-03-31T06:41:42.471Z,6.28
2019-03-31T06:46:48.166Z,6.39
2019-03-31T06:51:53.850Z,6.52
2019-03-31T06:56:59.761Z,6.74
2019-03-31T07:02:05.658Z,6.83
2019-03-31T07:07:11.376Z,7.01
2019-03-31T07:12:17.578Z,7.19
2019-03-31T07:17:23.295Z,7.40
2019-03-31T07:22:28.977Z,7.62
2019-03-31T07:27:35.183Z,7.91
2019-03-31T07:32:41.307Z,8.27
2019-03-31T07:37:48.047Z,8.56
2019-03-31T07:42:54.210Z,9.15
2019-03-31T07:47:59.955Z,9.63
2019-03-31T07:53:06.052Z,9.86
2019-03-31T07:58:11.829Z,10.01
2019-03-31T08:03:18.196Z,10.20
2019-03-31T08:08:24.335Z,10.26
2019-03-31T08:13:30.160Z,10.23
2019-03-31T08:18:36.358Z,10.37
2019-03-31T08:23:43.176Z,10.44
2019-03-31T08:28:48.969Z,10.38
2019-03-31T08:33:55.272Z,10.39
2019-03-31T08:39:01.347Z,10.40
2019-03-31T08:44:09.311Z,10.43
2019-03-31T08:49:15.214Z,10.25
2019-03-31T08:54:21.127Z,10.20
2019-03-31T08:59:27.847Z,10.05
2019-03-31T09:04:33.548Z,10.04
2019-03-31T09:09:39.661Z,10.02
2019-03-31T09:14:45.493Z,9.77
2019-03-31T09:19:51.676Z,9.81
2019-03-31T09:24:57.451Z,10.04
2019-03-31T09:30:03.235Z,10.23
2019-03-31T09:35:10.136Z,10.03
2019-03-31T09:40:16.247Z,10.09
2019-03-31T09:45:22.525Z,10.23
2019-03-31T09:50:28.317Z,10.26
2019-03-31T09:55:34.663Z,10.04
2019-03-31T10:00:50.709Z,9.93
2019-03-31T10:06:09.920Z,9.95
2019-03-31T10:11:05.493Z,10.03
2019-03-31T10:16:11.663Z,10.15
2019-03-31T10:21:17.501Z,10.25
2019-03-31T10:26:31.865Z,10.28
2019-03-31T10:31:31.199Z,10.74
2019-03-31T10:36:44.412Z,11.01
2019-03-31T10:41:44.872Z,10.37
2019-03-31T10:46:50.973Z,10.80
2019-03-31T10:51:56.791Z,10.51
2019-03-31T10:57:03.044Z,10.29
2019-03-31T11:02:09.222Z,10.62
2019-03-31T11:07:15.322Z,10.42
2019-03-31T11:12:21.112Z,10.78
2019-03-31T11:17:26.904Z,10.54
2019-03-31T11:22:55.666Z,10.61
2019-03-31T11:28:01.555Z,10.38
2019-03-31T11:33:07.942Z,10.18
2019-03-31T11:38:14.232Z,10.16
2019-03-31T11:43:20.113Z,9.66
2019-03-31T11:48:25.887Z,9.30
2019-03-31T11:53:32.201Z,9.26
2019-03-31T11:58:40.977Z,9.20
2019-03-31T12:03:46.845Z,9.19
2019-03-31T12:08:52.681Z,9.13
2019-03-31T12:13:59.664Z,8.93
2019-03-31T12:19:05.835Z,8.82
2019-03-31T12:24:11.802Z,8.64
2019-03-31T12:29:17.991Z,9.00
2019-03-31T12:34:25.620Z,8.98
2019-03-31T12:39:31.655Z,8.98
2019-03-31T12:44:37.553Z,8.98
2019-03-31T12:49:43.440Z,9.14
2019-03-31T12:54:49.231Z,9.03
2019-03-31T12:59:55.698Z,8.86
2019-03-31T13:05:01.620Z,8.87
2019-03-31T13:10:07.739Z,8.56
2019-03-31T13:15:14.154Z,8.55
2019-03-31T13:20:19.955Z,8.80
2019-03-31T13:25:26.827Z,9.12
2019-03-31T13:30:32.618Z,9.27
2019-03-31T13:35:38.540Z,9.22
2019-03-31T13:40:45.168Z,9.49
2019-03-31T13:45:50.959Z,9.26
2019-03-31T13:50:56.840Z,9.15
2019-03-31T13:56:03.207Z,8.91
2019-03-31T14:01:11.810Z,9.02
2019-03-31T14:06:18.113Z,8.97
2019-03-31T14:11:25.076Z,9.29
2019-03-31T14:16:30.896Z,10.07
2019-03-31T14:21:40.109Z,9.73
2019-03-31T14:26:47.696Z,9.97
2019-03-31T14:31:53.629Z,9.64
2019-03-31T14:36:59.893Z,9.75
2019-03-31T14:42:05.777Z,9.66
2019-03-31T14:47:12.046Z,9.53
2019-03-31T14:52:27.219Z,9.31
2019-03-31T14:57:25.752Z,9.44
2019-03-31T15:02:31.518Z,9.55
2019-03-31T15:07:37.277Z,9.36
2019-03-31T15:12:44.333Z,9.38
2019-03-31T15:17:50.981Z,9.57
2019-03-31T15:22:57.124Z,9.59
2019-03-31T15:28:03.742Z,9.71
2019-03-31T15:33:09.869Z,9.81
2019-03-31T15:38:16.113Z,9.87
2019-03-31T15:43:22.029Z,9.84
2019-03-31T15:48:27.870Z,9.78
2019-03-31T15:53:34.390Z,9.66
2019-03-31T15:58:40.199Z,9.63
2019-03-31T16:03:45.975Z,9.60
2019-03-31T16:08:51.218Z,9.58
2019-03-31T16:13:56.532Z,9.50
2019-03-31T16:19:03.973Z,9.37
2019-03-31T16:24:09.357Z,9.36
2019-03-31T16:29:14.967Z,9.29
2019-03-31T16:34:20.619Z,9.17
2019-03-31T16:39:36.886Z,9.05
2019-03-31T16:44:33.366Z,8.90
2019-03-31T16:49:38.913Z,8.75
2019-03-31T16:54:44.223Z,8.63
2019-03-31T16:59:50.184Z,8.58
2019-03-31T17:04:55.444Z,8.56
2019-03-31T17:10:01.227Z,8.58
2019-03-31T17:15:08.032Z,8.54
2019-03-31T17:20:13.492Z,8.48
2019-03-31T17:25:18.731Z,8.48
2019-03-31T17:30:24.331Z,8.38
2019-03-31T17:35:29.569Z,8.35
2019-03-31T17:40:35.181Z,8.37
2019-03-31T17:45:40.718Z,8.29
2019-03-31T17:50:47.520Z,8.26
2019-03-31T17:55:53.047Z,8.14
2019-03-31T18:00:58.286Z,8.04
2019-03-31T18:06:03.531Z,7.88
2019-03-31T18:11:08.766Z,7.88
2019-03-31T18:16:14.408Z,7.89
2019-03-31T18:21:19.665Z,7.80
2019-03-31T18:26:25.989Z,7.77
2019-03-31T18:31:31.229Z,7.66
2019-03-31T18:36:37.339Z,7.64
2019-03-31T18:41:43.008Z,7.62
2019-03-31T18:46:48.179Z,7.46
2019-03-31T18:51:53.464Z,7.37
2019-03-31T18:57:10.950Z,7.32
2019-03-31T19:02:45.624Z,7.18
2019-03-31T19:08:18.884Z,7.13
2019-03-31T19:13:37.540Z,7.15
2019-03-31T19:18:58.474Z,7.04
2019-03-31T19:24:18.473Z,6.99
2019-03-31T19:29:45.421Z,6.92
2019-03-31T19:35:09.716Z,6.88
2019-03-31T19:40:26.666Z,6.86
2019-03-31T19:45:50.940Z,6.71
2019-03-31T19:51:21.604Z,6.75
2019-03-31T19:56:47.499Z,6.75
2019-03-31T20:02:13.010Z,6.67
2019-03-31T20:07:46.485Z,6.51
2019-03-31T20:13:11.121Z,6.40
2019-03-31T20:18:41.979Z,6.34
2019-03-31T20:24:09.281Z,6.29
2019-03-31T20:29:39.328Z,6.22
2019-03-31T20:35:05.428Z,6.23
2019-03-31T20:40:17.644Z,6.23
2019-03-31T20:45:22.814Z,6.17
2019-03-31T20:50:28.063Z,6.17
2019-03-31T20:55:33.681Z,6.10
2019-03-31T21:00:39.740Z,5.99
2019-03-31T21:05:45.336Z,6.03
2019-03-31T21:10:50.871Z,5.96
2019-03-31T21:15:57.493Z,5.91
2019-03-31T21:21:02.686Z,5.82
2019-03-31T21:26:07.861Z,5.81
2019-03-31T21:31:13.035Z,5.72
2019-03-31T21:36:18.304Z,5.59
2019-03-31T21:41:23.725Z,5.57
2019-03-31T21:46:29.932Z,5.63
2019-03-31T21:51:36.575Z,5.58
2019-03-31T21:56:41.736Z,5.53
2019-03-31T22:01:46.885Z,5.42
2019-03-31T22:06:52.037Z,5.14
2019-03-31T22:11:57.462Z,4.94
2019-03-31T22:17:02.733Z,4.86
2019-03-31T22:22:09.577Z,4.82
2019-03-31T22:27:14.797Z,4.92
2019-03-31T22:32:20.485Z,4.97
2019-03-31T22:37:26.127Z,4.99
2019-03-31T22:42:31.914Z,4.95
2019-03-31T22:47:37.806Z,4.87
2019-03-31T22:52:43.670Z,4.76
2019-03-31T22:57:49.375Z,4.55
2019-03-31T23:02:54.531Z,4.61
2019-03-31T23:07:59.613Z,4.52
2019-03-31T23:13:04.765Z,4.51
2019-03-31T23:18:10.214Z,4.49
2019-03-31T23:23:16.510Z,4.43
2019-03-31T23:28:21.688Z,4.41
2019-03-31T23:33:28.047Z,4.33
2019-03-31T23:38:33.513Z,4.31
2019-03-31T23:43:38.663Z,4.19
2019-03-31T23:48:44.074Z,4.08
2019-03-31T23:53:49.217Z,3.86
2019-03-31T23:58:54.501Z,3.88
